sensor_id;sensor_type;location;lat;lon;timestamp;P1;durP1;ratioP1;P2;durP2;ratioP2
55314;SDS011;41619;42.816;23.226;2023-02-28T00:00:15;40.50;;;20.00;;
55314;SDS011;41619;42.816;23.226;2023-02-28T00:02:41;41.65;;;20.23;;
55314;SDS011;41619;42.816;23.226;2023-02-28T00:05:08;43.22;;;21.42;;
55314;SDS011;41619;42.816;23.226;2023-02-28T00:07:35;44.55;;;23.23;;
55314;SDS011;41619;42.816;23.226;2023-02-28T00:10:02;52.40;;;24.27;;
55314;SDS011;41619;42.816;23.226;2023-02-28T00:12:28;46.45;;;22.50;;
55314;SDS011;41619;42.816;23.226;2023-02-28T00:14:54;46.47;;;24.20;;
55314;SDS011;41619;42.816;23.226;2023-02-28T00:17:19;52.08;;;24.23;;
55314;SDS011;41619;42.816;23.226;2023-02-28T00:19:50;55.05;;;25.75;;
55314;SDS011;41619;42.816;23.226;2023-02-28T00:22:20;48.97;;;24.90;;
55314;SDS011;41619;42.816;23.226;2023-02-28T00:24:46;48.63;;;24.52;;
55314;SDS011;41619;42.816;23.226;2023-02-28T00:27:12;58.17;;;26.50;;
55314;SDS011;41619;42.816;23.226;2023-02-28T00:29:38;57.97;;;27.75;;
55314;SDS011;41619;42.816;23.226;2023-02-28T00:32:04;55.95;;;26.73;;
55314;SDS011;41619;42.816;23.226;2023-02-28T00:34:30;51.90;;;24.58;;
55314;SDS011;41619;42.816;23.226;2023-02-28T00:36:57;48.92;;;24.35;;
55314;SDS011;41619;42.816;23.226;2023-02-28T00:39:22;47.78;;;22.20;;
55314;SDS011;41619;42.816;23.226;2023-02-28T00:41:48;43.58;;;21.27;;
55314;SDS011;41619;42.816;23.226;2023-02-28T00:44:13;51.90;;;22.05;;
55314;SDS011;41619;42.816;23.226;2023-02-28T00:46:38;38.55;;;21.40;;
55314;SDS011;41619;42.816;23.226;2023-02-28T00:49:04;41.33;;;20.45;;
55314;SDS011;41619;42.816;23.226;2023-02-28T00:51:29;44.97;;;20.48;;
55314;SDS011;41619;42.816;23.226;2023-02-28T00:53:55;55.33;;;22.52;;
55314;SDS011;41619;42.816;23.226;2023-02-28T00:56:20;39.53;;;19.90;;
55314;SDS011;41619;42.816;23.226;2023-02-28T00:58:46;40.70;;;20.77;;
55314;SDS011;41619;42.816;23.226;2023-02-28T01:01:11;41.38;;;21.38;;
55314;SDS011;41619;42.816;23.226;2023-02-28T01:03:37;51.28;;;22.92;;
55314;SDS011;41619;42.816;23.226;2023-02-28T01:06:02;55.55;;;25.17;;
55314;SDS011;41619;42.816;23.226;2023-02-28T01:08:27;84.95;;;33.67;;
55314;SDS011;41619;42.816;23.226;2023-02-28T01:10:53;47.35;;;24.13;;
55314;SDS011;41619;42.816;23.226;2023-02-28T01:13:19;55.78;;;25.40;;
55314;SDS011;41619;42.816;23.226;2023-02-28T01:15:46;50.80;;;23.55;;
55314;SDS011;41619;42.816;23.226;2023-02-28T01:18:18;45.92;;;23.27;;
55314;SDS011;41619;42.816;23.226;2023-02-28T01:20:44;49.10;;;24.35;;
55314;SDS011;41619;42.816;23.226;2023-02-28T01:23:11;70.38;;;31.48;;
55314;SDS011;41619;42.816;23.226;2023-02-28T01:25:36;69.32;;;28.85;;
55314;SDS011;41619;42.816;23.226;2023-02-28T01:28:02;78.90;;;30.10;;
55314;SDS011;41619;42.816;23.226;2023-02-28T01:30:28;76.97;;;29.27;;
55314;SDS011;41619;42.816;23.226;2023-02-28T01:32:54;74.05;;;32.38;;
55314;SDS011;41619;42.816;23.226;2023-02-28T01:35:19;83.88;;;35.72;;
55314;SDS011;41619;42.816;23.226;2023-02-28T01:37:45;66.00;;;30.48;;
55314;SDS011;41619;42.816;23.226;2023-02-28T01:40:10;57.88;;;26.75;;
55314;SDS011;41619;42.816;23.226;2023-02-28T01:42:36;48.13;;;24.30;;
55314;SDS011;41619;42.816;23.226;2023-02-28T01:45:18;52.45;;;25.85;;
55314;SDS011;41619;42.816;23.226;2023-02-28T01:47:47;82.18;;;35.15;;
55314;SDS011;41619;42.816;23.226;2023-02-28T01:50:21;59.25;;;27.65;;
55314;SDS011;41619;42.816;23.226;2023-02-28T01:52:49;56.55;;;27.25;;
55314;SDS011;41619;42.816;23.226;2023-02-28T01:55:17;54.95;;;27.13;;
55314;SDS011;41619;42.816;23.226;2023-02-28T01:57:48;69.82;;;30.55;;
55314;SDS011;41619;42.816;23.226;2023-02-28T02:00:17;70.10;;;29.48;;
55314;SDS011;41619;42.816;23.226;2023-02-28T02:02:47;63.47;;;26.80;;
55314;SDS011;41619;42.816;23.226;2023-02-28T02:05:20;47.42;;;23.30;;
55314;SDS011;41619;42.816;23.226;2023-02-28T02:10:33;43.05;;;20.52;;
55314;SDS011;41619;42.816;23.226;2023-02-28T02:26:58;41.10;;;22.05;;
55314;SDS011;41619;42.816;23.226;2023-02-28T02:37:40;44.03;;;20.95;;
55314;SDS011;41619;42.816;23.226;2023-02-28T02:42:46;181.23;;;55.05;;
55314;SDS011;41619;42.816;23.226;2023-02-28T02:45:24;140.18;;;63.85;;
55314;SDS011;41619;42.816;23.226;2023-02-28T02:48:00;66.75;;;34.22;;
55314;SDS011;41619;42.816;23.226;2023-02-28T02:50:33;137.68;;;45.17;;
55314;SDS011;41619;42.816;23.226;2023-02-28T02:53:03;207.93;;;56.78;;
55314;SDS011;41619;42.816;23.226;2023-02-28T02:55:32;182.65;;;53.22;;
55314;SDS011;41619;42.816;23.226;2023-02-28T02:58:04;61.40;;;25.70;;
55314;SDS011;41619;42.816;23.226;2023-02-28T03:00:45;61.25;;;26.52;;
55314;SDS011;41619;42.816;23.226;2023-02-28T03:03:16;88.28;;;40.38;;
55314;SDS011;41619;42.816;23.226;2023-02-28T03:05:46;61.10;;;27.75;;
55314;SDS011;41619;42.816;23.226;2023-02-28T03:08:15;185.68;;;56.45;;
55314;SDS011;41619;42.816;23.226;2023-02-28T03:10:42;131.38;;;48.45;;
55314;SDS011;41619;42.816;23.226;2023-02-28T03:26:52;39.65;;;19.15;;
55314;SDS011;41619;42.816;23.226;2023-02-28T03:29:30;45.63;;;18.55;;
55314;SDS011;41619;42.816;23.226;2023-02-28T03:32:03;36.15;;;18.52;;
55314;SDS011;41619;42.816;23.226;2023-02-28T03:34:37;37.05;;;17.67;;
55314;SDS011;41619;42.816;23.226;2023-02-28T03:37:11;44.10;;;21.35;;
55314;SDS011;41619;42.816;23.226;2023-02-28T03:39:44;43.70;;;21.15;;
55314;SDS011;41619;42.816;23.226;2023-02-28T03:42:15;41.70;;;20.52;;
55314;SDS011;41619;42.816;23.226;2023-02-28T03:44:45;40.42;;;21.02;;
55314;SDS011;41619;42.816;23.226;2023-02-28T03:47:28;43.88;;;22.20;;
55314;SDS011;41619;42.816;23.226;2023-02-28T03:52:30;44.08;;;21.98;;
55314;SDS011;41619;42.816;23.226;2023-02-28T03:55:02;39.42;;;22.15;;
55314;SDS011;41619;42.816;23.226;2023-02-28T03:57:38;43.05;;;22.70;;
55314;SDS011;41619;42.816;23.226;2023-02-28T04:00:25;40.35;;;21.35;;
55314;SDS011;41619;42.816;23.226;2023-02-28T04:02:53;47.78;;;21.77;;
55314;SDS011;41619;42.816;23.226;2023-02-28T04:05:20;47.63;;;22.40;;
55314;SDS011;41619;42.816;23.226;2023-02-28T04:07:46;43.30;;;21.60;;
55314;SDS011;41619;42.816;23.226;2023-02-28T04:10:11;39.53;;;21.48;;
55314;SDS011;41619;42.816;23.226;2023-02-28T04:12:38;43.78;;;22.90;;
55314;SDS011;41619;42.816;23.226;2023-02-28T04:15:03;45.65;;;21.45;;
55314;SDS011;41619;42.816;23.226;2023-02-28T04:17:29;37.80;;;19.67;;
55314;SDS011;41619;42.816;23.226;2023-02-28T04:19:55;41.47;;;19.58;;
55314;SDS011;41619;42.816;23.226;2023-02-28T04:22:22;38.92;;;18.90;;
55314;SDS011;41619;42.816;23.226;2023-02-28T04:24:47;40.47;;;19.80;;
55314;SDS011;41619;42.816;23.226;2023-02-28T04:27:12;42.50;;;21.55;;
55314;SDS011;41619;42.816;23.226;2023-02-28T04:29:40;60.65;;;28.40;;
55314;SDS011;41619;42.816;23.226;2023-02-28T04:32:09;54.35;;;24.77;;
55314;SDS011;41619;42.816;23.226;2023-02-28T04:34:35;50.17;;;23.88;;
55314;SDS011;41619;42.816;23.226;2023-02-28T04:37:01;49.58;;;24.25;;
55314;SDS011;41619;42.816;23.226;2023-02-28T04:39:28;49.70;;;25.52;;
55314;SDS011;41619;42.816;23.226;2023-02-28T04:41:54;80.28;;;38.97;;
55314;SDS011;41619;42.816;23.226;2023-02-28T04:44:20;84.45;;;39.13;;
55314;SDS011;41619;42.816;23.226;2023-02-28T04:46:47;72.05;;;36.92;;
55314;SDS011;41619;42.816;23.226;2023-02-28T04:49:13;73.38;;;34.78;;
55314;SDS011;41619;42.816;23.226;2023-02-28T04:51:39;112.72;;;68.38;;
55314;SDS011;41619;42.816;23.226;2023-02-28T04:54:05;64.30;;;35.63;;
55314;SDS011;41619;42.816;23.226;2023-02-28T04:56:30;88.68;;;54.15;;
55314;SDS011;41619;42.816;23.226;2023-02-28T04:58:56;54.75;;;31.25;;
55314;SDS011;41619;42.816;23.226;2023-02-28T05:01:26;46.10;;;23.02;;
55314;SDS011;41619;42.816;23.226;2023-02-28T05:03:54;53.47;;;23.42;;
55314;SDS011;41619;42.816;23.226;2023-02-28T05:06:21;40.97;;;22.00;;
55314;SDS011;41619;42.816;23.226;2023-02-28T05:08:49;43.30;;;22.33;;
55314;SDS011;41619;42.816;23.226;2023-02-28T05:11:27;48.85;;;23.55;;
55314;SDS011;41619;42.816;23.226;2023-02-28T05:13:58;43.75;;;22.42;;
55314;SDS011;41619;42.816;23.226;2023-02-28T05:16:24;46.30;;;22.23;;
55314;SDS011;41619;42.816;23.226;2023-02-28T05:18:49;43.67;;;22.35;;
55314;SDS011;41619;42.816;23.226;2023-02-28T05:21:23;50.13;;;26.20;;
55314;SDS011;41619;42.816;23.226;2023-02-28T05:23:51;51.50;;;25.52;;
55314;SDS011;41619;42.816;23.226;2023-02-28T05:26:17;50.10;;;25.02;;
55314;SDS011;41619;42.816;23.226;2023-02-28T05:28:43;49.22;;;23.63;;
55314;SDS011;41619;42.816;23.226;2023-02-28T05:31:11;48.67;;;26.30;;
55314;SDS011;41619;42.816;23.226;2023-02-28T05:33:37;49.42;;;25.88;;
55314;SDS011;41619;42.816;23.226;2023-02-28T05:36:03;58.13;;;27.13;;
55314;SDS011;41619;42.816;23.226;2023-02-28T05:38:29;60.95;;;27.88;;
55314;SDS011;41619;42.816;23.226;2023-02-28T05:40:54;54.35;;;25.23;;
55314;SDS011;41619;42.816;23.226;2023-02-28T05:43:19;53.67;;;27.42;;
55314;SDS011;41619;42.816;23.226;2023-02-28T05:45:45;64.40;;;30.95;;
55314;SDS011;41619;42.816;23.226;2023-02-28T05:48:10;64.35;;;28.70;;
55314;SDS011;41619;42.816;23.226;2023-02-28T05:50:36;57.67;;;28.52;;
55314;SDS011;41619;42.816;23.226;2023-02-28T05:53:01;48.83;;;24.88;;
55314;SDS011;41619;42.816;23.226;2023-02-28T05:55:27;56.10;;;24.63;;
55314;SDS011;41619;42.816;23.226;2023-02-28T05:57:52;46.92;;;23.40;;
55314;SDS011;41619;42.816;23.226;2023-02-28T06:00:18;43.75;;;22.90;;
55314;SDS011;41619;42.816;23.226;2023-02-28T06:02:43;39.10;;;22.10;;
55314;SDS011;41619;42.816;23.226;2023-02-28T06:05:16;95.80;;;44.80;;
55314;SDS011;41619;42.816;23.226;2023-02-28T06:07:42;145.48;;;68.68;;
55314;SDS011;41619;42.816;23.226;2023-02-28T06:10:08;67.93;;;37.25;;
55314;SDS011;41619;42.816;23.226;2023-02-28T06:12:37;54.47;;;29.00;;
55314;SDS011;41619;42.816;23.226;2023-02-28T06:15:03;55.95;;;26.13;;
55314;SDS011;41619;42.816;23.226;2023-02-28T06:17:28;50.60;;;23.40;;
55314;SDS011;41619;42.816;23.226;2023-02-28T06:19:54;69.57;;;27.70;;
55314;SDS011;41619;42.816;23.226;2023-02-28T06:22:19;49.22;;;23.23;;
55314;SDS011;41619;42.816;23.226;2023-02-28T06:24:45;46.28;;;23.73;;
55314;SDS011;41619;42.816;23.226;2023-02-28T06:27:10;56.35;;;25.48;;
55314;SDS011;41619;42.816;23.226;2023-02-28T06:29:35;51.00;;;25.20;;
55314;SDS011;41619;42.816;23.226;2023-02-28T06:32:04;57.33;;;26.38;;
55314;SDS011;41619;42.816;23.226;2023-02-28T06:34:30;44.58;;;23.75;;
55314;SDS011;41619;42.816;23.226;2023-02-28T06:36:55;60.35;;;26.90;;
55314;SDS011;41619;42.816;23.226;2023-02-28T06:39:21;55.97;;;28.88;;
55314;SDS011;41619;42.816;23.226;2023-02-28T06:41:46;58.60;;;30.90;;
55314;SDS011;41619;42.816;23.226;2023-02-28T06:44:14;47.53;;;26.15;;
55314;SDS011;41619;42.816;23.226;2023-02-28T06:46:41;38.08;;;19.92;;
55314;SDS011;41619;42.816;23.226;2023-02-28T06:49:08;27.27;;;16.73;;
55314;SDS011;41619;42.816;23.226;2023-02-28T06:51:34;32.97;;;18.33;;
55314;SDS011;41619;42.816;23.226;2023-02-28T06:54:00;29.85;;;17.88;;
55314;SDS011;41619;42.816;23.226;2023-02-28T06:56:26;31.95;;;18.35;;
55314;SDS011;41619;42.816;23.226;2023-02-28T06:58:51;34.63;;;21.35;;
55314;SDS011;41619;42.816;23.226;2023-02-28T07:01:20;30.38;;;17.30;;
55314;SDS011;41619;42.816;23.226;2023-02-28T07:03:47;36.08;;;19.90;;
55314;SDS011;41619;42.816;23.226;2023-02-28T07:06:17;29.42;;;17.55;;
55314;SDS011;41619;42.816;23.226;2023-02-28T07:08:43;34.30;;;17.77;;
55314;SDS011;41619;42.816;23.226;2023-02-28T07:11:09;35.95;;;19.35;;
55314;SDS011;41619;42.816;23.226;2023-02-28T07:13:35;39.60;;;21.58;;
55314;SDS011;41619;42.816;23.226;2023-02-28T07:16:03;40.55;;;24.38;;
55314;SDS011;41619;42.816;23.226;2023-02-28T07:18:29;34.13;;;19.05;;
55314;SDS011;41619;42.816;23.226;2023-02-28T07:20:55;34.13;;;18.10;;
55314;SDS011;41619;42.816;23.226;2023-02-28T07:23:21;38.53;;;21.65;;
55314;SDS011;41619;42.816;23.226;2023-02-28T07:25:46;47.17;;;25.88;;
55314;SDS011;41619;42.816;23.226;2023-02-28T07:28:12;37.88;;;23.20;;
55314;SDS011;41619;42.816;23.226;2023-02-28T07:30:38;42.40;;;22.45;;
55314;SDS011;41619;42.816;23.226;2023-02-28T07:33:05;47.63;;;23.05;;
55314;SDS011;41619;42.816;23.226;2023-02-28T07:35:30;44.03;;;23.25;;
55314;SDS011;41619;42.816;23.226;2023-02-28T07:37:59;41.85;;;22.83;;
55314;SDS011;41619;42.816;23.226;2023-02-28T07:40:25;44.88;;;23.02;;
55314;SDS011;41619;42.816;23.226;2023-02-28T07:42:51;48.33;;;25.50;;
55314;SDS011;41619;42.816;23.226;2023-02-28T07:45:16;71.25;;;30.88;;
55314;SDS011;41619;42.816;23.226;2023-02-28T07:47:43;166.88;;;54.05;;
55314;SDS011;41619;42.816;23.226;2023-02-28T07:50:10;67.25;;;32.33;;
55314;SDS011;41619;42.816;23.226;2023-02-28T07:52:38;73.88;;;32.92;;
55314;SDS011;41619;42.816;23.226;2023-02-28T07:55:04;64.53;;;33.13;;
55314;SDS011;41619;42.816;23.226;2023-02-28T07:57:31;57.13;;;31.60;;
55314;SDS011;41619;42.816;23.226;2023-02-28T07:59:57;45.08;;;25.48;;
55314;SDS011;41619;42.816;23.226;2023-02-28T08:02:22;55.00;;;28.05;;
55314;SDS011;41619;42.816;23.226;2023-02-28T08:04:48;51.42;;;28.25;;
55314;SDS011;41619;42.816;23.226;2023-02-28T08:07:14;57.63;;;29.38;;
55314;SDS011;41619;42.816;23.226;2023-02-28T08:09:41;85.45;;;39.95;;
55314;SDS011;41619;42.816;23.226;2023-02-28T08:12:07;80.03;;;42.75;;
55314;SDS011;41619;42.816;23.226;2023-02-28T08:14:33;79.97;;;40.97;;
55314;SDS011;41619;42.816;23.226;2023-02-28T08:16:59;57.50;;;31.42;;
55314;SDS011;41619;42.816;23.226;2023-02-28T08:19:25;51.42;;;28.50;;
55314;SDS011;41619;42.816;23.226;2023-02-28T08:21:50;58.17;;;30.42;;
55314;SDS011;41619;42.816;23.226;2023-02-28T08:24:16;59.58;;;32.65;;
55314;SDS011;41619;42.816;23.226;2023-02-28T08:26:41;66.32;;;30.90;;
55314;SDS011;41619;42.816;23.226;2023-02-28T08:29:07;64.50;;;30.15;;
55314;SDS011;41619;42.816;23.226;2023-02-28T08:31:32;58.65;;;28.98;;
55314;SDS011;41619;42.816;23.226;2023-02-28T08:33:57;54.33;;;26.20;;
55314;SDS011;41619;42.816;23.226;2023-02-28T08:36:24;57.03;;;26.42;;
55314;SDS011;41619;42.816;23.226;2023-02-28T08:38:50;69.60;;;27.17;;
55314;SDS011;41619;42.816;23.226;2023-02-28T08:41:16;52.88;;;26.30;;
55314;SDS011;41619;42.816;23.226;2023-02-28T08:43:41;53.85;;;28.17;;
55314;SDS011;41619;42.816;23.226;2023-02-28T08:46:07;63.05;;;29.63;;
55314;SDS011;41619;42.816;23.226;2023-02-28T08:48:35;64.80;;;32.10;;
55314;SDS011;41619;42.816;23.226;2023-02-28T08:51:13;79.47;;;40.72;;
55314;SDS011;41619;42.816;23.226;2023-02-28T08:56:09;56.17;;;26.73;;
55314;SDS011;41619;42.816;23.226;2023-02-28T08:58:37;54.95;;;26.83;;
55314;SDS011;41619;42.816;23.226;2023-02-28T09:01:10;59.47;;;27.15;;
55314;SDS011;41619;42.816;23.226;2023-02-28T09:03:40;70.10;;;29.25;;
55314;SDS011;41619;42.816;23.226;2023-02-28T09:06:06;63.20;;;29.77;;
55314;SDS011;41619;42.816;23.226;2023-02-28T09:08:32;59.97;;;29.48;;
55314;SDS011;41619;42.816;23.226;2023-02-28T09:10:58;68.00;;;32.75;;
55314;SDS011;41619;42.816;23.226;2023-02-28T09:13:24;73.18;;;32.90;;
55314;SDS011;41619;42.816;23.226;2023-02-28T09:15:50;106.90;;;48.10;;
55314;SDS011;41619;42.816;23.226;2023-02-28T09:18:16;111.45;;;45.38;;
55314;SDS011;41619;42.816;23.226;2023-02-28T09:20:41;75.15;;;37.05;;
55314;SDS011;41619;42.816;23.226;2023-02-28T09:23:09;66.03;;;32.05;;
55314;SDS011;41619;42.816;23.226;2023-02-28T09:25:35;66.70;;;32.42;;
55314;SDS011;41619;42.816;23.226;2023-02-28T09:28:01;72.53;;;35.20;;
55314;SDS011;41619;42.816;23.226;2023-02-28T09:30:27;73.68;;;34.75;;
55314;SDS011;41619;42.816;23.226;2023-02-28T09:32:53;76.72;;;39.13;;
55314;SDS011;41619;42.816;23.226;2023-02-28T09:35:19;88.43;;;41.40;;
55314;SDS011;41619;42.816;23.226;2023-02-28T09:37:47;80.15;;;39.58;;
55314;SDS011;41619;42.816;23.226;2023-02-28T09:40:14;93.28;;;43.35;;
55314;SDS011;41619;42.816;23.226;2023-02-28T09:42:42;93.65;;;46.08;;
55314;SDS011;41619;42.816;23.226;2023-02-28T09:45:22;96.55;;;46.40;;
55314;SDS011;41619;42.816;23.226;2023-02-28T09:48:09;79.97;;;41.97;;
55314;SDS011;41619;42.816;23.226;2023-02-28T09:50:41;64.20;;;32.85;;
55314;SDS011;41619;42.816;23.226;2023-02-28T09:53:19;69.95;;;35.05;;
55314;SDS011;41619;42.816;23.226;2023-02-28T09:55:53;59.95;;;31.02;;
55314;SDS011;41619;42.816;23.226;2023-02-28T09:58:26;64.07;;;33.10;;
55314;SDS011;41619;42.816;23.226;2023-02-28T10:01:00;60.15;;;30.42;;
55314;SDS011;41619;42.816;23.226;2023-02-28T10:03:56;59.28;;;32.58;;
55314;SDS011;41619;42.816;23.226;2023-02-28T10:06:28;70.85;;;34.70;;
55314;SDS011;41619;42.816;23.226;2023-02-28T10:09:00;67.70;;;33.67;;
55314;SDS011;41619;42.816;23.226;2023-02-28T10:11:28;58.00;;;28.05;;
55314;SDS011;41619;42.816;23.226;2023-02-28T10:14:13;63.65;;;29.20;;
55314;SDS011;41619;42.816;23.226;2023-02-28T10:16:50;65.15;;;31.90;;
55314;SDS011;41619;42.816;23.226;2023-02-28T10:22:01;55.53;;;25.67;;
55314;SDS011;41619;42.816;23.226;2023-02-28T10:24:47;47.33;;;24.52;;
55314;SDS011;41619;42.816;23.226;2023-02-28T10:29:47;62.90;;;27.95;;
55314;SDS011;41619;42.816;23.226;2023-02-28T10:32:25;55.42;;;26.65;;
55314;SDS011;41619;42.816;23.226;2023-02-28T10:37:37;49.58;;;25.40;;
55314;SDS011;41619;42.816;23.226;2023-02-28T10:40:04;46.70;;;25.38;;
55314;SDS011;41619;42.816;23.226;2023-02-28T10:42:32;59.33;;;30.67;;
55314;SDS011;41619;42.816;23.226;2023-02-28T10:55:56;55.92;;;25.08;;
55314;SDS011;41619;42.816;23.226;2023-02-28T10:58:25;41.08;;;21.33;;
55314;SDS011;41619;42.816;23.226;2023-02-28T11:00:57;42.97;;;21.15;;
55314;SDS011;41619;42.816;23.226;2023-02-28T11:05:55;38.08;;;17.35;;
55314;SDS011;41619;42.816;23.226;2023-02-28T11:08:21;44.25;;;19.83;;
55314;SDS011;41619;42.816;23.226;2023-02-28T11:10:48;34.65;;;16.58;;
55314;SDS011;41619;42.816;23.226;2023-02-28T11:13:20;48.42;;;17.83;;
55314;SDS011;41619;42.816;23.226;2023-02-28T11:15:59;40.50;;;15.63;;
55314;SDS011;41619;42.816;23.226;2023-02-28T11:18:27;38.92;;;17.27;;
55314;SDS011;41619;42.816;23.226;2023-02-28T11:21:06;40.08;;;19.27;;
55314;SDS011;41619;42.816;23.226;2023-02-28T11:23:34;42.38;;;17.08;;
55314;SDS011;41619;42.816;23.226;2023-02-28T11:26:02;41.70;;;18.43;;
55314;SDS011;41619;42.816;23.226;2023-02-28T11:28:36;41.90;;;18.25;;
55314;SDS011;41619;42.816;23.226;2023-02-28T11:33:54;35.97;;;19.17;;
55314;SDS011;41619;42.816;23.226;2023-02-28T11:36:25;41.08;;;19.83;;
55314;SDS011;41619;42.816;23.226;2023-02-28T11:38:53;44.25;;;18.02;;
55314;SDS011;41619;42.816;23.226;2023-02-28T11:44:05;44.40;;;19.35;;
55314;SDS011;41619;42.816;23.226;2023-02-28T11:49:35;42.67;;;18.63;;
55314;SDS011;41619;42.816;23.226;2023-02-28T11:55:27;48.92;;;20.15;;
55314;SDS011;41619;42.816;23.226;2023-02-28T12:01:15;46.78;;;18.60;;
55314;SDS011;41619;42.816;23.226;2023-02-28T12:12:26;40.63;;;17.33;;
55314;SDS011;41619;42.816;23.226;2023-02-28T12:17:30;51.47;;;20.70;;
55314;SDS011;41619;42.816;23.226;2023-02-28T12:20:14;36.03;;;19.73;;
55314;SDS011;41619;42.816;23.226;2023-02-28T12:25:22;42.60;;;18.40;;
55314;SDS011;41619;42.816;23.226;2023-02-28T12:27:50;40.72;;;18.17;;
55314;SDS011;41619;42.816;23.226;2023-02-28T12:30:22;35.33;;;18.40;;
55314;SDS011;41619;42.816;23.226;2023-02-28T12:33:15;46.85;;;19.35;;
55314;SDS011;41619;42.816;23.226;2023-02-28T12:35:49;45.05;;;18.38;;
55314;SDS011;41619;42.816;23.226;2023-02-28T12:38:27;40.65;;;17.70;;
55314;SDS011;41619;42.816;23.226;2023-02-28T12:41:03;36.33;;;18.35;;
55314;SDS011;41619;42.816;23.226;2023-02-28T12:43:44;41.95;;;16.00;;
55314;SDS011;41619;42.816;23.226;2023-02-28T12:46:21;40.38;;;17.48;;
55314;SDS011;41619;42.816;23.226;2023-02-28T12:48:55;40.08;;;18.67;;
55314;SDS011;41619;42.816;23.226;2023-02-28T12:51:24;36.60;;;18.20;;
55314;SDS011;41619;42.816;23.226;2023-02-28T12:56:53;40.47;;;17.45;;
55314;SDS011;41619;42.816;23.226;2023-02-28T12:59:27;34.53;;;15.75;;
55314;SDS011;41619;42.816;23.226;2023-02-28T13:05:24;34.60;;;15.95;;
55314;SDS011;41619;42.816;23.226;2023-02-28T13:10:55;45.15;;;16.02;;
55314;SDS011;41619;42.816;23.226;2023-02-28T13:13:25;45.00;;;16.13;;
55314;SDS011;41619;42.816;23.226;2023-02-28T13:16:07;44.22;;;15.57;;
55314;SDS011;41619;42.816;23.226;2023-02-28T13:18:38;36.92;;;15.90;;
55314;SDS011;41619;42.816;23.226;2023-02-28T13:21:08;36.92;;;16.60;;
55314;SDS011;41619;42.816;23.226;2023-02-28T13:23:39;37.72;;;17.45;;
55314;SDS011;41619;42.816;23.226;2023-02-28T13:26:17;30.13;;;17.00;;
55314;SDS011;41619;42.816;23.226;2023-02-28T13:31:14;33.00;;;16.67;;
55314;SDS011;41619;42.816;23.226;2023-02-28T13:36:31;36.55;;;17.20;;
55314;SDS011;41619;42.816;23.226;2023-02-28T13:39:01;43.35;;;18.45;;
55314;SDS011;41619;42.816;23.226;2023-02-28T13:44:09;36.63;;;18.55;;
55314;SDS011;41619;42.816;23.226;2023-02-28T13:47:23;43.40;;;20.05;;
55314;SDS011;41619;42.816;23.226;2023-02-28T13:51:48;46.15;;;19.80;;
55314;SDS011;41619;42.816;23.226;2023-02-28T13:59:57;44.20;;;20.45;;
55314;SDS011;41619;42.816;23.226;2023-02-28T14:07:26;41.65;;;20.15;;
55314;SDS011;41619;42.816;23.226;2023-02-28T14:10:03;45.05;;;22.00;;
55314;SDS011;41619;42.816;23.226;2023-02-28T14:17:57;53.28;;;25.42;;
55314;SDS011;41619;42.816;23.226;2023-02-28T14:20:26;54.33;;;24.13;;
55314;SDS011;41619;42.816;23.226;2023-02-28T14:25:58;30.15;;;14.10;;
55314;SDS011;41619;42.816;23.226;2023-02-28T14:31:17;34.30;;;17.90;;
55314;SDS011;41619;42.816;23.226;2023-02-28T14:34:51;52.70;;;28.27;;
55314;SDS011;41619;42.816;23.226;2023-02-28T14:36:46;81.25;;;41.53;;
55314;SDS011;41619;42.816;23.226;2023-02-28T14:39:14;44.53;;;22.85;;
55314;SDS011;41619;42.816;23.226;2023-02-28T14:41:44;33.78;;;16.15;;
55314;SDS011;41619;42.816;23.226;2023-02-28T14:46:50;30.53;;;15.00;;
55314;SDS011;41619;42.816;23.226;2023-02-28T14:49:20;26.15;;;14.02;;
55314;SDS011;41619;42.816;23.226;2023-02-28T14:52:01;26.67;;;11.48;;
55314;SDS011;41619;42.816;23.226;2023-02-28T14:54:30;20.52;;;9.05;;
55314;SDS011;41619;42.816;23.226;2023-02-28T14:56:56;17.70;;;8.70;;
55314;SDS011;41619;42.816;23.226;2023-02-28T15:02:18;22.65;;;8.55;;
55314;SDS011;41619;42.816;23.226;2023-02-28T15:04:56;20.40;;;8.85;;
55314;SDS011;41619;42.816;23.226;2023-02-28T15:07:23;20.60;;;8.68;;
55314;SDS011;41619;42.816;23.226;2023-02-28T15:20:53;19.25;;;11.25;;
55314;SDS011;41619;42.816;23.226;2023-02-28T15:23:21;39.55;;;14.88;;
55314;SDS011;41619;42.816;23.226;2023-02-28T15:25:47;22.30;;;9.88;;
55314;SDS011;41619;42.816;23.226;2023-02-28T15:28:15;25.30;;;10.35;;
55314;SDS011;41619;42.816;23.226;2023-02-28T15:30:58;24.08;;;11.10;;
55314;SDS011;41619;42.816;23.226;2023-02-28T15:33:29;24.65;;;10.55;;
55314;SDS011;41619;42.816;23.226;2023-02-28T15:36:07;20.48;;;8.88;;
55314;SDS011;41619;42.816;23.226;2023-02-28T15:38:38;25.80;;;9.80;;
55314;SDS011;41619;42.816;23.226;2023-02-28T15:41:04;18.67;;;8.63;;
55314;SDS011;41619;42.816;23.226;2023-02-28T15:43:36;18.85;;;8.40;;
55314;SDS011;41619;42.816;23.226;2023-02-28T15:46:05;20.83;;;8.02;;
55314;SDS011;41619;42.816;23.226;2023-02-28T15:48:34;17.73;;;9.00;;
55314;SDS011;41619;42.816;23.226;2023-02-28T15:51:06;21.05;;;10.38;;
55314;SDS011;41619;42.816;23.226;2023-02-28T15:53:57;17.50;;;8.00;;
55314;SDS011;41619;42.816;23.226;2023-02-28T15:56:43;25.02;;;12.52;;
55314;SDS011;41619;42.816;23.226;2023-02-28T15:59:14;25.70;;;11.68;;
55314;SDS011;41619;42.816;23.226;2023-02-28T16:01:42;23.08;;;9.50;;
55314;SDS011;41619;42.816;23.226;2023-02-28T16:04:13;25.83;;;10.45;;
55314;SDS011;41619;42.816;23.226;2023-02-28T16:06:42;17.98;;;8.73;;
55314;SDS011;41619;42.816;23.226;2023-02-28T16:09:15;30.20;;;16.35;;
55314;SDS011;41619;42.816;23.226;2023-02-28T16:11:45;23.20;;;12.45;;
55314;SDS011;41619;42.816;23.226;2023-02-28T16:14:14;30.65;;;14.77;;
55314;SDS011;41619;42.816;23.226;2023-02-28T16:16:43;46.63;;;22.40;;
55314;SDS011;41619;42.816;23.226;2023-02-28T16:19:13;38.22;;;14.77;;
55314;SDS011;41619;42.816;23.226;2023-02-28T16:21:38;29.08;;;15.00;;
55314;SDS011;41619;42.816;23.226;2023-02-28T16:24:04;28.40;;;14.23;;
55314;SDS011;41619;42.816;23.226;2023-02-28T16:26:30;28.30;;;12.23;;
55314;SDS011;41619;42.816;23.226;2023-02-28T16:28:55;31.92;;;13.60;;
55314;SDS011;41619;42.816;23.226;2023-02-28T16:31:21;24.83;;;11.50;;
55314;SDS011;41619;42.816;23.226;2023-02-28T16:33:46;33.90;;;13.23;;
55314;SDS011;41619;42.816;23.226;2023-02-28T16:36:16;25.38;;;10.70;;
55314;SDS011;41619;42.816;23.226;2023-02-28T16:38:44;33.47;;;10.82;;
55314;SDS011;41619;42.816;23.226;2023-02-28T16:41:17;27.55;;;10.95;;
55314;SDS011;41619;42.816;23.226;2023-02-28T16:43:46;46.95;;;20.10;;
55314;SDS011;41619;42.816;23.226;2023-02-28T16:46:13;34.95;;;13.57;;
55314;SDS011;41619;42.816;23.226;2023-02-28T16:48:39;32.75;;;15.32;;
55314;SDS011;41619;42.816;23.226;2023-02-28T16:51:05;30.65;;;12.45;;
55314;SDS011;41619;42.816;23.226;2023-02-28T16:53:33;24.05;;;10.20;;